Time;durP1;ratioP1;P1;durP2;ratioP2;P2;SDS_P1;SDS_P2;PMS_P1;PMS_P2;Temp;Humidity;BMP_temperature;BMP_pressure;BME280_temperature;BME280_humidity;BME280_pressure;Samples;Min_cycle;Max_cycle;Signal;HPM_P1;HPM_P2
2023/04/30 00:01:44;;;;;;;7.07;4.10;;;;;;;12.62;56.13;102248.28;5098378;28;20055;-62
2023/04/30 00:04:12;;;;;;;11.32;4.35;;;;;;;12.61;56.29;102247.44;5098900;28;20068;-62
2023/04/30 00:06:40;;;;;;;10.20;4.55;;;;;;;12.60;56.23;102242.25;5093115;28;20126;-62
2023/04/30 00:09:08;;;;;;;7.05;3.75;;;;;;;12.59;56.04;102244.13;5099342;28;20067;-62
2023/04/30 00:11:36;;;;;;;8.48;4.00;;;;;;;12.58;56.41;102249.72;5098175;28;20090;-62
2023/04/30 00:14:05;;;;;;;7.63;4.00;;;;;;;12.56;56.09;102247.22;5099840;28;20087;-62
2023/04/30 00:16:33;;;;;;;8.00;3.90;;;;;;;12.54;56.18;102249.28;5098062;28;20048;-62
2023/04/30 00:19:01;;;;;;;8.02;4.15;;;;;;;12.51;56.13;102247.00;5100080;28;20072;-62
2023/04/30 00:21:29;;;;;;;7.53;4.15;;;;;;;12.51;56.53;102244.28;5094388;28;20059;-62
2023/04/30 00:23:59;;;;;;;8.55;4.18;;;;;;;12.51;56.44;102251.56;5092082;28;20389;-62
2023/04/30 00:26:26;;;;;;;8.30;4.75;;;;;;;12.50;56.69;102244.50;5085715;28;20041;-62
2023/04/30 00:28:54;;;;;;;6.15;4.03;;;;;;;12.48;56.41;102241.16;5083616;28;20052;-62
2023/04/30 00:31:23;;;;;;;10.88;4.30;;;;;;;12.47;56.58;102255.69;5097970;28;20044;-62
2023/04/30 00:33:51;;;;;;;7.65;4.25;;;;;;;12.45;56.98;102257.75;5094325;28;20110;-62
2023/04/30 00:36:19;;;;;;;11.20;3.85;;;;;;;12.35;56.87;102236.53;5089404;28;20138;-61
2023/04/30 00:38:47;;;;;;;7.65;4.55;;;;;;;12.45;56.77;102257.75;5084797;28;20049;-62
2023/04/30 00:41:14;;;;;;;10.15;4.80;;;;;;;12.43;56.60;102257.94;5091700;28;20138;-62
2023/04/30 00:43:42;;;;;;;5.95;3.70;;;;;;;12.44;56.70;102254.22;5096678;28;20132;-62
2023/04/30 00:46:10;;;;;;;8.52;4.20;;;;;;;12.43;56.85;102252.56;5087969;28;20048;-62
2023/04/30 00:48:39;;;;;;;9.32;4.72;;;;;;;12.43;57.01;102263.34;5086490;28;20068;-62
2023/04/30 00:51:08;;;;;;;8.02;4.55;;;;;;;12.40;57.15;102250.25;5085949;28;20074;-62
2023/04/30 00:53:37;;;;;;;6.28;3.92;;;;;;;12.41;57.01;102251.91;5097131;28;20079;-62
2023/04/30 00:56:06;;;;;;;6.78;4.13;;;;;;;12.39;57.07;102248.59;5096824;28;20043;-62
2023/04/30 00:58:34;;;;;;;6.32;4.30;;;;;;;12.39;56.81;102256.69;5097349;28;20044;-62
2023/04/30 01:01:03;;;;;;;5.80;3.95;;;;;;;12.38;56.88;102255.00;5096302;28;20062;-62
2023/04/30 01:03:31;;;;;;;8.80;3.90;;;;;;;12.36;57.12;102254.38;5086271;28;20049;-62
2023/04/30 01:06:00;;;;;;;5.55;3.88;;;;;;;12.35;57.15;102247.31;5093264;28;20040;-61
2023/04/30 01:08:28;;;;;;;7.80;3.58;;;;;;;12.35;57.26;102247.31;5091597;28;20079;-62
2023/04/30 01:11:08;;;;;;;8.88;4.13;;;;;;;12.35;56.97;102247.31;5094595;28;20156;-62
2023/04/30 01:13:44;;;;;;;9.15;4.75;;;;;;;12.33;57.02;102242.13;5093692;28;20070;-62
2023/04/30 01:16:19;;;;;;;7.95;4.13;;;;;;;12.31;57.22;102241.50;5092682;28;20075;-62
2023/04/30 01:18:52;;;;;;;6.30;4.15;;;;;;;12.31;57.08;102240.66;5099059;28;20040;-62
2023/04/30 01:21:22;;;;;;;8.80;3.85;;;;;;;12.31;57.27;102243.38;5094650;28;20048;-62
2023/04/30 01:24:15;;;;;;;8.30;4.32;;;;;;;12.28;57.20;102236.50;5095153;28;20303;-62
2023/04/30 01:26:59;;;;;;;10.82;4.55;;;;;;;12.27;57.40;102251.00;5089715;28;20072;-62
2023/04/30 01:29:30;;;;;;;6.22;4.15;;;;;;;12.25;57.31;102239.59;5088540;28;20049;-62
2023/04/30 01:31:57;;;;;;;6.32;4.47;;;;;;;12.24;57.67;102242.50;5092383;28;20055;-62
2023/04/30 01:34:25;;;;;;;6.13;3.90;;;;;;;12.22;57.61;102240.00;5099696;28;20068;-62
2023/04/30 01:37:06;;;;;;;5.95;4.20;;;;;;;12.21;57.34;102243.72;5088022;28;20335;-62
2023/04/30 01:39:48;;;;;;;8.95;3.80;;;;;;;12.21;57.28;102243.72;5083523;28;20251;-62
2023/04/30 01:42:21;;;;;;;7.95;4.22;;;;;;;12.19;57.75;102236.88;5089414;28;20055;-61
2023/04/30 01:45:01;;;;;;;5.85;4.03;;;;;;;12.17;57.74;102242.44;5089100;28;20225;-62
2023/04/30 01:47:39;;;;;;;7.47;3.80;;;;;;;12.17;57.53;102237.06;5098763;28;20079;-62
2023/04/30 01:50:20;;;;;;;5.82;4.03;;;;;;;12.16;57.41;102237.25;5093488;28;20040;-62
2023/04/30 01:52:52;;;;;;;7.38;4.20;;;;;;;12.16;57.62;102245.34;5091646;28;20112;-62
2023/04/30 01:55:24;;;;;;;7.75;3.95;;;;;;;12.15;57.39;102246.38;5095735;28;20044;-62
2023/04/30 01:57:57;;;;;;;8.82;4.25;;;;;;;12.14;57.49;102242.00;5097240;28;20036;-62
2023/04/30 02:00:27;;;;;;;6.18;4.00;;;;;;;12.12;57.84;102244.09;5100628;28;20055;-61
2023/04/30 02:02:54;;;;;;;7.72;4.63;;;;;;;12.10;57.52;102238.09;5097339;28;20048;-61
2023/04/30 02:05:22;;;;;;;7.55;4.65;;;;;;;12.10;57.51;102246.16;5096077;28;20291;-61
2023/04/30 02:07:52;;;;;;;9.80;4.22;;;;;;;12.07;57.79;102244.69;5092541;28;20143;-62
2023/04/30 02:10:21;;;;;;;7.80;4.22;;;;;;;12.08;57.72;102245.53;5098443;28;20094;-62
2023/04/30 02:12:49;;;;;;;7.47;4.38;;;;;;;12.07;57.68;102246.56;5097592;28;20166;-62
2023/04/30 02:15:17;;;;;;;6.53;4.57;;;;;;;12.07;57.69;102254.66;5097421;28;20068;-62
2023/04/30 02:17:46;;;;;;;9.02;4.95;;;;;;;12.05;57.56;102250.28;5093403;28;20043;-62
2023/04/30 02:20:14;;;;;;;6.57;4.00;;;;;;;12.03;57.75;102257.72;5085500;28;20052;-62
2023/04/30 02:22:42;;;;;;;7.70;4.32;;;;;;;12.03;57.99;102257.72;5097014;28;20473;-62
2023/04/30 02:25:11;;;;;;;9.18;4.05;;;;;;;12.02;57.69;102255.25;5092781;28;20330;-62
2023/04/30 02:27:39;;;;;;;8.23;4.45;;;;;;;12.02;57.72;102260.63;5088290;28;20083;-62
2023/04/30 02:30:08;;;;;;;6.70;4.32;;;;;;;12.01;57.77;102257.09;5099867;28;20075;-62
2023/04/30 02:32:36;;;;;;;6.88;4.10;;;;;;;12.00;57.73;102262.69;5093911;28;20080;-62
2023/04/30 02:35:06;;;;;;;6.65;4.22;;;;;;;11.94;57.94;102250.84;5093190;28;20626;-62
2023/04/30 02:37:33;;;;;;;7.97;4.47;;;;;;;11.98;57.80;102253.97;5100793;28;20083;-62
2023/04/30 02:40:01;;;;;;;6.75;4.00;;;;;;;11.97;57.65;102252.31;5094059;28;20072;-62
2023/04/30 02:42:29;;;;;;;7.25;4.50;;;;;;;11.96;58.10;102250.63;5093529;28;20083;-62
2023/04/30 02:44:56;;;;;;;8.07;4.18;;;;;;;11.95;57.86;102252.50;5099080;28;20050;-62
2023/04/30 02:47:24;;;;;;;5.88;3.90;;;;;;;11.93;57.93;102254.56;5097281;28;20054;-62
2023/04/30 02:49:52;;;;;;;9.70;4.72;;;;;;;11.91;57.83;102258.47;5100028;28;20052;-62
2023/04/30 02:52:21;;;;;;;8.20;5.47;;;;;;;11.91;57.89;102256.59;5090005;28;20355;-62
2023/04/30 02:54:49;;;;;;;6.80;4.95;;;;;;;11.89;58.06;102252.44;5098818;28;20048;-62
2023/04/30 02:57:17;;;;;;;6.53;4.40;;;;;;;11.87;58.02;102252.63;5095643;28;20159;-62
2023/04/30 02:59:45;;;;;;;7.15;4.40;;;;;;;11.87;57.94;102257.19;5086302;28;20113;-62
2023/04/30 03:02:13;;;;;;;7.20;4.10;;;;;;;11.85;58.27;102253.88;5088859;28;20044;-62
2023/04/30 03:04:40;;;;;;;8.93;5.07;;;;;;;11.82;58.10;102249.69;5087203;28;20068;-61
2023/04/30 03:07:08;;;;;;;6.43;4.45;;;;;;;11.82;58.08;102246.19;5087070;28;20043;-61
2023/04/30 03:09:37;;;;;;;7.57;4.93;;;;;;;11.81;58.31;102247.22;5089719;28;20036;-61
2023/04/30 03:12:05;;;;;;;6.28;4.35;;;;;;;11.78;58.34;102243.03;5100311;28;20059;-61
2023/04/30 03:14:33;;;;;;;6.75;4.32;;;;;;;11.79;58.10;102246.56;5101687;28;20080;-61
2023/04/30 03:17:01;;;;;;;6.55;4.32;;;;;;;11.78;57.97;102237.66;5095098;28;20217;-61
2023/04/30 03:19:28;;;;;;;8.20;4.03;;;;;;;11.76;58.29;102239.69;5099998;28;20051;-61
2023/04/30 03:21:56;;;;;;;7.57;4.80;;;;;;;11.77;58.09;102243.19;5090715;28;20078;-62
2023/04/30 03:24:24;;;;;;;7.97;4.40;;;;;;;11.76;58.11;102244.22;5100673;28;20104;-62
2023/04/30 03:26:54;;;;;;;7.40;4.35;;;;;;;11.73;58.16;102238.22;5090733;28;20045;-62
2023/04/30 03:29:21;;;;;;;8.65;4.68;;;;;;;11.73;58.00;102237.38;5098271;28;20075;-61
2023/04/30 03:31:49;;;;;;;8.50;4.65;;;;;;;11.70;58.30;102235.06;5099194;28;20466;-62
2023/04/30 03:34:17;;;;;;;6.53;4.60;;;;;;;11.70;58.05;102233.22;5090112;28;20048;-62
2023/04/30 03:36:45;;;;;;;7.70;4.22;;;;;;;11.68;58.14;102235.28;5098628;28;20119;-62
2023/04/30 03:39:13;;;;;;;7.25;3.97;;;;;;;11.67;58.45;102230.91;5096623;28;20363;-61
2023/04/30 03:41:41;;;;;;;8.57;4.63;;;;;;;11.67;58.41;102236.28;5092472;28;20447;-62
2023/04/30 03:44:14;;;;;;;6.78;4.25;;;;;;;11.66;58.68;102231.94;5089900;28;20054;-62
2023/04/30 03:46:43;;;;;;;8.80;4.75;;;;;;;11.65;58.46;102245.59;5088972;28;20048;-62
2023/04/30 03:49:10;;;;;;;6.75;4.78;;;;;;;11.64;58.37;102238.53;5096826;28;20073;-62
2023/04/30 03:51:40;;;;;;;9.13;4.65;;;;;;;11.62;58.40;102240.59;5098253;28;20125;-62
2023/04/30 03:54:08;;;;;;;7.47;4.18;;;;;;;11.61;58.26;102239.78;5087739;28;20079;-62
2023/04/30 03:56:37;;;;;;;8.50;4.47;;;;;;;11.61;58.17;102239.78;5099395;28;20541;-62
2023/04/30 03:59:05;;;;;;;8.57;4.40;;;;;;;11.62;58.29;102243.28;5088637;28;20055;-62
2023/04/30 04:01:35;;;;;;;5.80;4.07;;;;;;;11.59;58.25;102244.50;5092299;28;20129;-62
2023/04/30 04:04:03;;;;;;;8.48;4.72;;;;;;;11.60;58.30;102245.34;5095858;28;20074;-62
2023/04/30 04:06:31;;;;;;;11.43;4.70;;;;;;;11.58;58.05;102245.53;5092727;28;20070;-61
2023/04/30 04:08:58;;;;;;;6.95;4.10;;;;;;;11.59;58.25;102243.69;5093248;28;20044;-61
2023/04/30 04:11:26;;;;;;;5.53;4.10;;;;;;;11.56;58.11;102247.59;5101143;28;20059;-62
2023/04/30 04:13:54;;;;;;;8.38;4.70;;;;;;;11.56;58.38;102250.28;5103265;28;20485;-62
2023/04/30 04:16:22;;;;;;;6.22;4.35;;;;;;;11.54;58.41;102255.03;5100780;28;20142;-62
2023/04/30 04:18:51;;;;;;;8.00;4.82;;;;;;;11.53;58.18;102261.44;5103520;28;20466;-62
2023/04/30 04:21:19;;;;;;;6.47;4.50;;;;;;;11.53;58.54;102264.13;5101913;28;20074;-62
2023/04/30 04:23:46;;;;;;;9.15;4.90;;;;;;;11.50;58.53;102272.59;5103087;28;20103;-62
2023/04/30 04:26:15;;;;;;;10.05;4.68;;;;;;;11.49;58.68;102273.63;5101865;28;20230;-62
2023/04/30 04:28:43;;;;;;;6.68;4.72;;;;;;;11.47;58.50;102266.78;5099907;28;20049;-62
2023/04/30 04:31:11;;;;;;;7.05;4.55;;;;;;;11.46;58.53;102265.94;5104483;28;20079;-62
2023/04/30 04:33:39;;;;;;;9.27;5.00;;;;;;;11.45;58.64;102269.66;5101465;28;20180;-62
2023/04/30 04:36:08;;;;;;;7.18;4.75;;;;;;;11.45;58.53;102274.22;5097519;28;20643;-62
2023/04/30 04:38:36;;;;;;;8.88;4.97;;;;;;;11.43;58.74;102276.25;5101576;28;20079;-62
2023/04/30 04:41:04;;;;;;;8.27;5.00;;;;;;;11.38;58.57;102266.91;5104519;28;20107;-62
2023/04/30 04:43:31;;;;;;;6.25;4.65;;;;;;;11.41;58.52;102276.44;5100598;28;20044;-62
2023/04/30 04:45:59;;;;;;;6.47;4.50;;;;;;;11.41;58.41;102276.44;5103524;28;20142;-62
2023/04/30 04:48:27;;;;;;;6.72;4.80;;;;;;;11.41;58.52;102281.84;5098876;28;20051;-62
2023/04/30 04:50:55;;;;;;;10.52;4.93;;;;;;;11.40;58.64;102282.84;5099230;28;20437;-62
2023/04/30 04:53:24;;;;;;;8.35;4.60;;;;;;;11.39;58.71;102283.88;5090700;28;20050;-62
2023/04/30 04:55:52;;;;;;;4.78;3.65;;;;;;;11.38;58.34;102283.06;5097677;28;20266;-63
2023/04/30 04:58:19;;;;;;;8.57;5.18;;;;;;;11.37;58.59;102285.94;5083903;28;20127;-62
2023/04/30 05:00:47;;;;;;;6.85;4.68;;;;;;;11.35;58.47;102286.13;5096738;28;20108;-62
2023/04/30 05:03:15;;;;;;;7.65;5.10;;;;;;;11.34;58.33;102276.38;5096334;28;20041;-62
2023/04/30 05:05:43;;;;;;;10.73;4.90;;;;;;;11.33;58.67;102285.47;5088742;28;20044;-62
2023/04/30 05:08:11;;;;;;;8.40;4.47;;;;;;;11.33;58.71;102281.97;5101127;28;20107;-62
2023/04/30 05:10:40;;;;;;;7.30;4.55;;;;;;;11.32;58.68;102282.97;5091959;28;20529;-62
2023/04/30 05:13:07;;;;;;;7.55;4.47;;;;;;;11.31;58.57;102278.63;5095494;28;20101;-62
2023/04/30 05:15:41;;;;;;;8.28;5.30;;;;;;;11.29;58.84;102269.91;4951138;27;10000684;-62
2023/04/30 05:18:09;;;;;;;7.10;5.00;;;;;;;11.29;58.74;102273.44;5080041;28;20740;-62
2023/04/30 05:20:37;;;;;;;6.50;4.35;;;;;;;11.30;58.79;102271.56;5093336;28;20050;-63
2023/04/30 05:23:04;;;;;;;9.23;4.53;;;;;;;11.29;58.77;102277.97;5080693;28;20083;-63
2023/04/30 05:25:32;;;;;;;6.63;4.80;;;;;;;11.29;58.61;102268.06;5081839;28;20138;-62
2023/04/30 05:28:02;;;;;;;6.75;4.18;;;;;;;11.28;58.68;102277.16;5096117;28;20105;-62
2023/04/30 05:30:30;;;;;;;7.25;4.50;;;;;;;11.29;58.60;102273.44;5098954;28;20051;-62
2023/04/30 05:32:58;;;;;;;9.80;4.32;;;;;;;11.29;58.60;102280.66;5086668;28;20128;-62
2023/04/30 05:35:26;;;;;;;6.70;4.60;;;;;;;11.27;58.74;102278.16;5080950;28;20484;-61
2023/04/30 05:37:53;;;;;;;7.18;4.80;;;;;;;11.28;58.92;102284.38;5091354;28;20135;-61
2023/04/30 05:40:21;;;;;;;6.78;4.50;;;;;;;11.27;58.92;102288.09;5087551;28;20123;-61
2023/04/30 05:42:49;;;;;;;7.07;4.63;;;;;;;11.28;59.09;102284.38;5093718;28;20075;-60
2023/04/30 05:45:18;;;;;;;7.50;4.53;;;;;;;11.28;59.07;102281.69;5085089;28;20044;-62
2023/04/30 05:47:46;;;;;;;5.78;4.28;;;;;;;11.26;59.17;102279.19;5085020;28;20063;-61
2023/04/30 05:50:14;;;;;;;6.80;4.53;;;;;;;11.28;58.98;102287.91;5091021;28;20040;-62
2023/04/30 05:52:41;;;;;;;6.68;4.32;;;;;;;11.29;58.99;102286.06;5089370;28;20104;-61
2023/04/30 05:55:10;;;;;;;7.63;4.53;;;;;;;11.27;59.08;102288.09;5092472;28;20263;-62
2023/04/30 05:57:38;;;;;;;5.78;4.70;;;;;;;11.28;59.22;102289.78;5099666;28;20048;-62
2023/04/30 06:00:07;;;;;;;6.43;4.45;;;;;;;11.28;59.38;102289.78;5096256;28;20074;-62
2023/04/30 06:02:36;;;;;;;6.32;4.40;;;;;;;11.29;59.34;102286.88;5098782;28;20067;-62
2023/04/30 06:05:05;;;;;;;10.02;4.60;;;;;;;11.31;59.19;102284.84;5096961;28;20051;-62
2023/04/30 06:07:32;;;;;;;5.55;4.20;;;;;;;11.19;59.39;102258.63;5099498;28;20048;-61
2023/04/30 06:10:00;;;;;;;6.47;4.95;;;;;;;11.36;59.29;102282.41;5096130;28;20048;-62
2023/04/30 06:12:28;;;;;;;5.78;4.43;;;;;;;11.40;59.43;102288.25;5087771;28;20055;-62
2023/04/30 06:14:56;;;;;;;8.98;4.60;;;;;;;11.41;59.34;102282.66;5095831;28;20052;-62
2023/04/30 06:17:24;;;;;;;6.10;4.15;;;;;;;11.46;59.34;102276.72;5097511;28;20052;-62
2023/04/30 06:19:53;;;;;;;6.78;4.15;;;;;;;11.48;59.31;102277.34;5088347;28;20041;-62
2023/04/30 06:22:21;;;;;;;6.30;4.05;;;;;;;11.52;59.22;102278.63;5087937;28;20060;-62
2023/04/30 06:24:48;;;;;;;5.38;3.90;;;;;;;11.53;59.13;102269.53;5093456;28;20120;-62
2023/04/30 06:27:16;;;;;;;6.90;3.90;;;;;;;11.54;59.27;102268.50;5097677;28;20548;-62
2023/04/30 06:29:44;;;;;;;9.02;3.90;;;;;;;11.56;59.18;102271.81;5097670;28;20052;-62
2023/04/30 06:32:12;;;;;;;6.90;3.85;;;;;;;11.58;59.29;102279.72;5097244;28;20054;-62
2023/04/30 06:34:39;;;;;;;5.50;4.05;;;;;;;11.60;59.33;102275.81;5093254;28;20258;-62
2023/04/30 06:37:09;;;;;;;6.80;3.65;;;;;;;11.60;59.39;102270.41;5090245;28;20052;-62
2023/04/30 06:39:36;;;;;;;6.13;3.72;;;;;;;11.62;59.60;102271.06;5093103;28;20062;-62
2023/04/30 06:42:04;;;;;;;7.05;4.40;;;;;;;11.63;59.53;102275.41;5098791;28;20067;-62
2023/04/30 06:44:32;;;;;;;6.07;3.38;;;;;;;11.68;59.63;102277.53;5079879;28;20072;-62
2023/04/30 06:47:00;;;;;;;8.32;3.63;;;;;;;11.69;59.83;102279.19;5092021;28;20079;-61
2023/04/30 06:49:27;;;;;;;5.88;3.53;;;;;;;11.72;59.58;102278.81;5083929;28;20596;-62
2023/04/30 06:51:57;;;;;;;5.72;3.33;;;;;;;11.73;59.83;102284.00;5097409;28;20044;-62
2023/04/30 06:54:26;;;;;;;5.75;3.58;;;;;;;11.74;59.76;102277.59;5097362;28;20055;-61
2023/04/30 06:56:54;;;;;;;6.32;4.10;;;;;;;11.78;60.06;102283.44;5096549;28;20115;-62
2023/04/30 06:59:22;;;;;;;5.50;4.05;;;;;;;11.80;59.86;102281.38;5086086;28;20040;-62
2023/04/30 07:01:49;;;;;;;7.05;4.45;;;;;;;11.82;59.65;102282.03;4742474;28;10000025;-62
2023/04/30 07:04:18;;;;;;;5.57;3.50;;;;;;;11.85;59.87;102280.81;5092419;28;20048;-61
2023/04/30 07:06:46;;;;;;;6.57;3.65;;;;;;;11.84;59.71;102271.88;5096140;28;20065;-62
2023/04/30 07:09:15;;;;;;;6.85;3.67;;;;;;;11.86;59.96;102275.22;5090916;28;20477;-61
2023/04/30 07:11:44;;;;;;;6.10;3.70;;;;;;;11.88;59.79;102283.94;5097503;28;20159;-62
2023/04/30 07:14:11;;;;;;;8.63;4.07;;;;;;;11.90;59.82;102275.66;5098851;28;20052;-61
2023/04/30 07:16:39;;;;;;;5.85;3.70;;;;;;;11.90;60.05;102276.50;5097553;28;20075;-61
2023/04/30 07:19:07;;;;;;;5.93;3.85;;;;;;;11.92;60.20;102281.69;5099104;28;20058;-62
2023/04/30 07:21:35;;;;;;;6.20;3.58;;;;;;;11.92;60.19;102277.13;5097841;28;20131;-61
2023/04/30 07:24:02;;;;;;;6.72;4.47;;;;;;;11.97;60.18;102280.06;5095694;28;20135;-61
2023/04/30 07:26:30;;;;;;;7.30;3.65;;;;;;;11.92;60.32;102266.34;5099155;28;20549;-61
2023/04/30 07:28:59;;;;;;;6.90;3.88;;;;;;;12.04;60.04;102272.88;5099337;28;20055;-61
2023/04/30 07:31:27;;;;;;;7.88;4.55;;;;;;;12.07;59.99;102274.34;5098761;28;20071;-61
2023/04/30 07:33:55;;;;;;;7.45;4.10;;;;;;;12.08;60.18;102278.69;5098171;28;20108;-61
2023/04/30 07:36:23;;;;;;;6.50;3.78;;;;;;;12.10;60.06;102281.19;5096383;28;20154;-60
2023/04/30 07:38:51;;;;;;;5.78;3.42;;;;;;;12.11;60.83;102281.00;5100106;28;20513;-59
2023/04/30 07:41:19;;;;;;;9.65;4.95;;;;;;;12.11;60.25;102274.78;5093523;28;20047;-61
2023/04/30 07:43:47;;;;;;;6.63;4.13;;;;;;;12.10;60.52;102275.81;5091424;28;20048;-61
2023/04/30 07:46:16;;;;;;;5.93;4.10;;;;;;;12.10;60.30;102276.63;5091866;28;20048;-61
2023/04/30 07:48:44;;;;;;;6.25;4.55;;;;;;;12.08;60.73;102264.41;5100749;28;20063;-61
2023/04/30 07:51:11;;;;;;;5.97;3.83;;;;;;;12.10;60.75;102271.25;5095469;28;20107;-62
2023/04/30 07:53:39;;;;;;;7.90;4.70;;;;;;;12.12;60.60;102271.06;5102905;28;20070;-61
2023/04/30 07:56:07;;;;;;;13.77;4.13;;;;;;;12.12;60.49;102268.34;5101894;28;20448;-61
2023/04/30 07:58:35;;;;;;;6.80;4.80;;;;;;;12.12;60.74;102274.59;5099580;28;20048;-60
2023/04/30 08:01:03;;;;;;;6.40;4.60;;;;;;;12.14;60.78;102271.66;5097816;28;20040;-61
2023/04/30 08:03:32;;;;;;;7.63;4.50;;;;;;;12.15;60.85;102267.94;5100931;28;20265;-61
2023/04/30 08:06:00;;;;;;;8.02;3.88;;;;;;;12.16;61.03;102273.13;5096844;28;20075;-61
2023/04/30 08:08:28;;;;;;;7.40;4.50;;;;;;;12.18;60.93;102275.63;5094848;28;20075;-61
2023/04/30 08:10:56;;;;;;;6.30;4.18;;;;;;;12.20;61.20;102270.88;5099791;28;20132;-61
2023/04/30 08:13:24;;;;;;;7.30;4.28;;;;;;;12.21;61.29;102276.06;5103229;28;20044;-61
2023/04/30 08:15:51;;;;;;;6.85;3.83;;;;;;;12.23;61.09;102270.47;5099325;28;20107;-61
2023/04/30 08:18:19;;;;;;;6.95;4.60;;;;;;;12.23;61.02;102268.59;5101884;28;20040;-61
2023/04/30 08:20:48;;;;;;;7.03;4.20;;;;;;;12.26;61.11;102270.91;5089518;28;20516;-62
2023/04/30 08:23:16;;;;;;;7.40;4.38;;;;;;;12.28;61.09;102273.41;5091380;28;20115;-61
2023/04/30 08:25:44;;;;;;;7.88;4.38;;;;;;;12.28;61.30;102274.25;5083866;28;20064;-61
2023/04/30 08:28:12;;;;;;;7.35;4.60;;;;;;;12.28;61.35;102270.72;5094818;28;20500;-61
2023/04/30 08:30:40;;;;;;;7.70;4.38;;;;;;;12.33;61.21;102273.66;5084085;28;20052;-61
2023/04/30 08:33:08;;;;;;;7.22;4.22;;;;;;;12.35;61.29;102268.88;5097174;28;20036;-61
2023/04/30 08:35:35;;;;;;;8.10;4.13;;;;;;;12.37;61.40;102269.53;5083901;28;20090;-61
2023/04/30 08:38:04;;;;;;;8.40;4.10;;;;;;;12.38;61.74;102269.31;5095386;28;20052;-62
2023/04/30 08:40:35;;;;;;;7.43;4.25;;;;;;;12.41;61.98;102270.78;5092113;28;20116;-62
2023/04/30 08:43:18;;;;;;;5.88;4.10;;;;;;;12.45;61.70;102269.34;5094393;28;20162;-62
2023/04/30 08:45:46;;;;;;;7.72;4.85;;;;;;;12.47;61.86;102269.16;5084313;28;20194;-62
2023/04/30 08:48:15;;;;;;;5.95;3.95;;;;;;;12.47;61.91;102259.22;5094087;28;20052;-61
2023/04/30 08:50:44;;;;;;;7.00;4.13;;;;;;;12.49;61.91;102261.69;5099107;28;20111;-62
2023/04/30 08:53:16;;;;;;;5.38;3.95;;;;;;;12.54;62.00;102265.47;5098176;28;20068;-61
2023/04/30 08:55:44;;;;;;;10.45;4.60;;;;;;;12.57;62.29;102267.75;5096886;28;20567;-61
2023/04/30 08:58:11;;;;;;;6.07;4.50;;;;;;;12.60;61.83;102263.84;5082452;28;20059;-61
2023/04/30 09:00:40;;;;;;;9.57;4.43;;;;;;;12.61;62.37;102265.50;5097376;28;20220;-62
2023/04/30 09:03:08;;;;;;;6.90;4.55;;;;;;;12.64;62.39;102265.09;5096332;28;20074;-61
2023/04/30 09:05:37;;;;;;;6.07;4.15;;;;;;;12.60;62.43;102243.09;5083912;28;20077;-61
2023/04/30 09:08:07;;;;;;;6.25;4.28;;;;;;;12.70;62.09;102258.91;5093806;28;20049;-61
2023/04/30 09:10:36;;;;;;;6.75;4.43;;;;;;;12.73;62.53;102254.97;5088220;28;20083;-61
2023/04/30 09:13:05;;;;;;;6.15;3.90;;;;;;;12.76;62.28;102257.25;5101346;28;20104;-61
2023/04/30 09:15:35;;;;;;;7.00;4.03;;;;;;;12.80;62.58;102250.44;5099931;28;20112;-61
2023/04/30 09:18:12;;;;;;;6.97;3.42;;;;;;;12.86;62.60;102244.22;5096164;28;20078;-61
2023/04/30 09:20:55;;;;;;;5.95;3.33;;;;;;;12.90;62.65;102253.56;5091112;28;20608;-61
2023/04/30 09:23:23;;;;;;;4.60;3.22;;;;;;;12.93;62.32;102250.47;5085297;28;20098;-61
2023/04/30 09:25:52;;;;;;;4.95;3.50;;;;;;;12.94;62.47;102257.53;5089158;28;20048;-61
2023/04/30 09:28:23;;;;;;;6.85;3.25;;;;;;;12.93;62.03;102248.59;5092318;28;20076;-61
2023/04/30 09:30:51;;;;;;;7.47;3.78;;;;;;;12.94;62.05;102252.13;5098497;28;20062;-61
2023/04/30 09:33:20;;;;;;;4.78;3.28;;;;;;;12.97;61.89;102249.88;5093510;28;20049;-61
2023/04/30 09:35:48;;;;;;;5.50;3.35;;;;;;;13.00;62.11;102245.94;5095731;28;20056;-62
2023/04/30 09:38:27;;;;;;;6.47;3.20;;;;;;;13.02;62.09;102255.47;5094074;28;20143;-62
2023/04/30 09:40:58;;;;;;;5.55;3.10;;;;;;;13.04;62.21;102257.97;5089018;28;20054;-61
2023/04/30 09:43:26;;;;;;;4.63;2.92;;;;;;;13.07;61.81;102249.47;5090481;28;20041;-62
2023/04/30 09:45:54;;;;;;;4.85;2.78;;;;;;;13.07;61.77;102249.47;5088059;28;20131;-62
2023/04/30 09:48:23;;;;;;;4.18;2.70;;;;;;;13.11;61.69;102248.03;5100921;28;20531;-62
2023/04/30 09:50:51;;;;;;;3.60;2.65;;;;;;;13.16;62.01;102252.81;5085216;28;20547;-61
2023/04/30 09:53:20;;;;;;;4.15;2.83;;;;;;;13.20;62.50;102246.84;5101855;28;20044;-61
2023/04/30 09:55:50;;;;;;;3.30;2.30;;;;;;;13.25;62.16;102247.06;5102870;28;20062;-61
2023/04/30 09:58:20;;;;;;;4.28;2.50;;;;;;;13.24;62.46;102236.47;5100592;28;20461;-61
2023/04/30 10:00:50;;;;;;;5.15;2.78;;;;;;;13.30;62.27;102239.16;5093469;28;20078;-61
2023/04/30 10:03:20;;;;;;;4.38;2.50;;;;;;;13.32;61.88;102233.56;5095942;28;20040;-61
2023/04/30 10:05:48;;;;;;;6.05;2.95;;;;;;;13.32;61.49;102233.56;5102096;28;20058;-62
2023/04/30 10:08:24;;;;;;;3.47;2.55;;;;;;;13.35;61.91;102236.69;5090532;28;20036;-61
2023/04/30 10:10:58;;;;;;;4.18;2.47;;;;;;;13.40;62.05;102227.97;5081670;28;20572;-61
2023/04/30 10:13:31;;;;;;;4.60;2.70;;;;;;;13.40;61.85;102214.47;5088980;28;20080;-61
2023/04/30 10:16:04;;;;;;;4.90;2.40;;;;;;;13.48;61.93;102225.06;5099521;28;20409;-61
2023/04/30 10:18:35;;;;;;;3.55;2.45;;;;;;;13.54;62.26;102226.94;5095844;28;20040;-61
2023/04/30 10:21:09;;;;;;;3.97;2.38;;;;;;;13.59;62.44;102221.72;5086694;28;20049;-61
2023/04/30 10:23:38;;;;;;;3.17;2.20;;;;;;;13.63;62.33;102225.69;5097377;28;20055;-62
2023/04/30 10:26:07;;;;;;;4.75;2.40;;;;;;;13.67;62.22;102223.41;5102322;28;20136;-62
2023/04/30 10:28:37;;;;;;;6.18;2.47;;;;;;;13.74;62.43;102220.69;5100442;28;20115;-62
2023/04/30 10:31:07;;;;;;;5.22;2.13;;;;;;;13.77;62.37;102215.69;5101443;28;20048;-62
2023/04/30 10:33:48;;;;;;;5.03;2.35;;;;;;;13.78;61.90;102211.97;5100228;28;20036;-62
2023/04/30 10:36:26;;;;;;;4.05;2.60;;;;;;;13.84;62.06;102207.59;5085254;28;20044;-62
2023/04/30 10:38:54;;;;;;;4.07;2.42;;;;;;;13.92;62.55;102213.56;5082215;28;20048;-62
2023/04/30 10:41:22;;;;;;;4.03;2.42;;;;;;;13.91;62.01;102198.38;5101293;28;20063;-62
2023/04/30 10:43:51;;;;;;;2.63;2.00;;;;;;;14.04;61.63;102202.94;5087070;28;20048;-63
2023/04/30 10:46:23;;;;;;;3.45;2.28;;;;;;;14.05;61.11;102201.06;5091809;28;20044;-62
2023/04/30 10:48:53;;;;;;;3.60;2.13;;;;;;;14.06;62.07;102200.84;5093513;28;20440;-64
2023/04/30 10:51:21;;;;;;;3.75;2.17;;;;;;;14.14;62.19;102197.91;5094100;28;20090;-61
2023/04/30 10:53:51;;;;;;;5.30;2.15;;;;;;;14.22;62.00;102192.28;5087562;28;20044;-62
2023/04/30 10:56:32;;;;;;;5.25;2.50;;;;;;;14.32;61.59;102189.13;5097508;28;20044;-63
2023/04/30 10:59:02;;;;;;;5.60;2.20;;;;;;;14.42;62.35;102177.88;5097601;28;20087;-62
2023/04/30 11:01:31;;;;;;;4.38;2.22;;;;;;;14.48;62.21;102177.84;5093642;28;20446;-63
2023/04/30 11:04:07;;;;;;;4.65;2.30;;;;;;;14.49;61.54;102178.69;5098651;28;20043;-62
2023/04/30 11:06:50;;;;;;;3.53;1.75;;;;;;;14.51;60.87;102165.78;5099657;28;20414;-62
2023/04/30 11:09:17;;;;;;;3.47;2.03;;;;;;;14.52;60.72;102168.25;5098916;28;20047;-62
2023/04/30 11:11:46;;;;;;;3.13;2.03;;;;;;;14.61;61.01;102168.84;5094822;28;20148;-62
2023/04/30 11:14:21;;;;;;;3.83;2.40;;;;;;;14.65;61.43;102170.06;5091610;28;20044;-62
2023/04/30 11:16:50;;;;;;;2.97;1.90;;;;;;;14.77;60.49;102160.22;5095389;28;20078;-62
2023/04/30 11:19:20;;;;;;;2.05;1.50;;;;;;;14.82;60.80;102156.88;5088896;28;20045;-62
2023/04/30 11:22:16;;;;;;;2.83;1.77;;;;;;;14.93;60.57;102148.88;4736216;28;10000054;-63
2023/04/30 11:25:00;;;;;;;2.28;1.67;;;;;;;14.97;60.10;102154.69;5092242;28;20553;-62
2023/04/30 11:27:29;;;;;;;6.57;1.80;;;;;;;14.95;60.28;102149.47;5095076;28;20169;-62
2023/04/30 11:29:59;;;;;;;5.05;1.90;;;;;;;14.98;60.66;102142.81;5094375;28;20040;-63
2023/04/30 11:32:33;;;;;;;3.38;1.90;;;;;;;15.03;60.28;102136.72;5095102;28;20046;-66
2023/04/30 11:35:02;;;;;;;3.03;1.67;;;;;;;15.12;60.34;102138.13;5093777;28;20044;-62